Airport ID:K0A0
Update Time (UTC):24/09/2020 18:05
Wind Speed (Knots):5
Wind Direction (Magnetic):340
Temperature (°C):29.3
Dew Point (°C):3.8
Humidity (%):19.9
Altimeter (inHg):30.14
Density Altitude (Feet):07100
Visibility (Miles):10
Clouds (Hundreds of feet):CLR
Present Weather:
METAR:METAR K0A0 241805Z AUTO VRB05KT 10SM CLR 29/04 A3014 RMK AO2

The data displayed is for advisory purposes only and is not to be used for flight planning or operations.